Offerle, KS (67563)

6:37 PM CDT on June 29, 2015 (GMT -0500)
Backyard Weather | | Change Station
CLOSE
Current Station
Personal Weather Station
Location: Kinsley, KS
Elevation: 2168 ft
Nearby Weather Stations

Elev 2168 ft 37.93 °N, 99.41 °W | Updated 3 seconds ago

Clear
Clear
93.4 °F
Feels Like 91 °F
N
4.0
Wind Variable Wind from West
Gusts 9.0 mph

Today
High -- | Low -- °F
--% Chance of Precip.
Yesterday
High -- | Low -- °F
Precip. -- in
6:18 AM 9:04 PM
Waxing Gibbous, 95% visible
Pressure 29.94 in
Visibility 10.0 miles
Clouds Clear
Heat Index 91 °F
Dew Point 51 °F
Humidity 24%
Rainfall 0.00 in
Snow Depth Not available.
UV 4 out of 12
Pollen 5.10 out of 12
Air Quality Not available.
Flu Activity No Activity
METAR KDDC 292252Z AUTO 23006KT 10SM CLR 31/11 A3002 RMK AO2 LTG DSNT W AND NW SLP137 T03110106

More Conditions Fewer Conditions

Pressure 29.94 in
Visibility 10.0 miles
Clouds Clear
Heat Index 91 °F
Dew Point 51 °F
Humidity 24%
Rainfall 0.00 in
Snow Depth Not available.
UV 4 out of 12
Pollen 5.10 out of 12
Air Quality Not available.
Flu Activity No Activity
METAR KDDC 292252Z AUTO 23006KT 10SM CLR 31/11 A3002 RMK AO2 LTG DSNT W AND NW SLP137 T03110106

More Conditions Fewer Conditions

10-Day Weather Forecast

×

Almanac

Astronomy

Jun. 29, 2015 Rise Set
Actual Time
Civil Twilight
Nautical Twilight
Astronomical Twilight
Moon
Length of Visible Light
Length of Day
Tomorrow will be .
, % of the Moon is Illuminated

Today's Extremes

State Highs State Lows

Community

WunderPhotos

Upload Photos

1,833,883 photos uploaded!

WunderBlogs® & News

Nearby

Air Quality

  Air Quality AQ Index Pollutant
Not available.

Snow Depth

Station Depth Elevation

Earthquake Activity

City Distance Mag. Time & Date
Minimum magnitude displayed is 2.5.

Coastal Water Temperatures

Place Temperature

Stations

Nearby Weather Stations

Station Location Temp. Windchill Dew Point Humidity Wind Precip. Elev Updated Type